createdAt,value
2023-05-05T00:01:02.376Z,97823.09
2023-05-05T00:03:31.110Z,97826.06
2023-05-05T00:06:00.295Z,97832.47
2023-05-05T00:08:28.729Z,97827.78
2023-05-05T00:10:57.736Z,97822.16
2023-05-05T00:13:27.642Z,97823.44
2023-05-05T00:15:55.958Z,97817.19
2023-05-05T00:18:24.371Z,97825.63
2023-05-05T00:20:52.877Z,97822.78
2023-05-05T00:23:21.490Z,97820.84
2023-05-05T00:25:49.865Z,97814.88
2023-05-05T00:28:18.262Z,97820.53
2023-05-05T00:30:48.017Z,97812.84
2023-05-05T00:33:16.870Z,97809.81
2023-05-05T00:35:45.248Z,97806.94
2023-05-05T00:38:13.641Z,97810.13
2023-05-05T00:40:43.188Z,97806.56
2023-05-05T00:43:13.113Z,97801.34
2023-05-05T00:45:44.327Z,97803.13
2023-05-05T00:48:14.328Z,97797.75
2023-05-05T00:50:45.046Z,97800.63
2023-05-05T00:53:13.815Z,97788.50
2023-05-05T00:55:42.228Z,97790.00
2023-05-05T00:58:11.289Z,97793.19
2023-05-05T01:00:39.706Z,97789.00
2023-05-05T01:03:08.132Z,97786.19
2023-05-05T01:05:43.916Z,97777.31
2023-05-05T01:08:24.047Z,97774.91
2023-05-05T01:10:56.641Z,97778.63
2023-05-05T01:13:29.549Z,97776.19
2023-05-05T01:16:03.376Z,97768.94
2023-05-05T01:18:36.455Z,97773.66
2023-05-05T01:21:11.326Z,97764.56
2023-05-05T01:24:08.906Z,97768.56
2023-05-05T01:26:52.659Z,97767.91
2023-05-05T01:29:38.543Z,97768.66
2023-05-05T01:32:09.791Z,97766.03
2023-05-05T01:34:41.629Z,97770.31
2023-05-05T01:37:13.703Z,97768.06
2023-05-05T01:39:44.228Z,97766.81
2023-05-05T01:42:15.184Z,97768.94
2023-05-05T01:44:45.042Z,97770.44
2023-05-05T01:47:17.511Z,97769.63
2023-05-05T01:49:47.887Z,97764.56
2023-05-05T01:52:16.669Z,97761.31
2023-05-05T01:54:45.726Z,97762.22
2023-05-05T01:57:15.069Z,97757.88
2023-05-05T01:59:43.630Z,97753.56
2023-05-05T02:02:14.087Z,97756.13
2023-05-05T02:04:43.622Z,97753.66
2023-05-05T02:07:12.868Z,97748.53
2023-05-05T02:09:42.370Z,97752.84
2023-05-05T02:12:11.374Z,97752.91
2023-05-05T02:14:40.670Z,97746.97
2023-05-05T02:17:09.768Z,97739.22
2023-05-05T02:19:41.266Z,97744.31
2023-05-05T02:22:09.663Z,97740.81
2023-05-05T02:24:37.937Z,97735.47
2023-05-05T02:27:07.822Z,97739.00
2023-05-05T02:29:37.801Z,97740.69
2023-05-05T02:32:08.486Z,97736.91
2023-05-05T02:34:40.337Z,97737.84
2023-05-05T02:37:14.154Z,97733.34
2023-05-05T02:39:48.517Z,97734.50
2023-05-05T02:42:21.751Z,97734.88
2023-05-05T02:44:53.283Z,97742.63
2023-05-05T02:47:22.140Z,97738.09
2023-05-05T02:49:54.306Z,97730.94
2023-05-05T02:52:22.539Z,97733.84
2023-05-05T02:54:51.205Z,97732.00
2023-05-05T02:57:21.903Z,97724.56
2023-05-05T03:00:06.025Z,97733.16
2023-05-05T03:02:42.966Z,97730.47
2023-05-05T03:05:19.716Z,97736.53
2023-05-05T03:07:54.794Z,97728.84
2023-05-05T03:10:29.161Z,97731.50
2023-05-05T03:13:00.540Z,97734.84
2023-05-05T03:15:46.307Z,97730.63
2023-05-05T03:18:17.772Z,97729.75
2023-05-05T03:20:52.642Z,97724.69
2023-05-05T03:23:22.989Z,97720.34
2023-05-05T03:25:56.781Z,97724.63
2023-05-05T03:28:34.979Z,97729.84
2023-05-05T03:31:09.589Z,97728.19
2023-05-05T03:33:39.494Z,97720.31
2023-05-05T03:36:09.243Z,97725.44
2023-05-05T03:38:37.595Z,97721.94
2023-05-05T03:41:06.202Z,97721.97
2023-05-05T03:43:35.575Z,97717.72
2023-05-05T03:46:03.993Z,97722.78
2023-05-05T03:48:32.362Z,97722.03
2023-05-05T03:51:00.767Z,97722.03
2023-05-05T03:53:33.017Z,97716.88
2023-05-05T03:56:03.658Z,97722.81
2023-05-05T03:58:32.370Z,97727.44
2023-05-05T04:01:00.776Z,97726.50
2023-05-05T04:03:29.222Z,97724.56
2023-05-05T04:05:57.501Z,97728.97
2023-05-05T04:08:26.016Z,97728.94
2023-05-05T04:10:57.488Z,97734.94
2023-05-05T04:13:25.809Z,97733.16
2023-05-05T04:15:54.466Z,97734.09
2023-05-05T04:18:23.371Z,97728.88
2023-05-05T04:20:52.189Z,97734.06
2023-05-05T04:23:20.994Z,97737.59
2023-05-05T04:25:50.335Z,97743.47
2023-05-05T04:28:21.833Z,97736.50
2023-05-05T04:30:50.901Z,97744.31
2023-05-05T04:33:19.712Z,97741.63
2023-05-05T04:35:49.941Z,97740.78
2023-05-05T04:38:19.553Z,97749.28
2023-05-05T04:40:48.621Z,97735.25
2023-05-05T04:43:19.885Z,97739.59
2023-05-05T04:45:54.850Z,97742.06
2023-05-05T04:48:26.237Z,97741.19
2023-05-05T04:50:54.631Z,97748.63
2023-05-05T04:53:22.957Z,97746.03
2023-05-05T04:55:51.146Z,97754.97
2023-05-05T04:58:21.285Z,97746.72
2023-05-05T05:00:49.626Z,97741.84
2023-05-05T05:03:18.161Z,97755.94
2023-05-05T05:05:46.870Z,97748.56
2023-05-05T05:08:16.953Z,97751.63
2023-05-05T05:10:45.410Z,97758.91
2023-05-05T05:13:13.854Z,97751.75
2023-05-05T05:15:44.062Z,97755.22
2023-05-05T05:18:13.273Z,97748.75
2023-05-05T05:20:41.748Z,97742.41
2023-05-05T05:23:10.507Z,97746.81
2023-05-05T05:25:44.655Z,97749.06
2023-05-05T05:28:14.253Z,97751.28
2023-05-05T05:30:50.052Z,97750.56
2023-05-05T05:33:19.041Z,97750.09
2023-05-05T05:35:48.080Z,97748.41
2023-05-05T05:38:18.087Z,97744.50
2023-05-05T05:40:47.478Z,97751.09
2023-05-05T05:43:16.003Z,97746.78
2023-05-05T05:45:44.633Z,97748.25
2023-05-05T05:48:14.731Z,97736.69
2023-05-05T05:50:43.422Z,97742.34
2023-05-05T05:53:11.621Z,97744.22
2023-05-05T05:55:40.114Z,97742.13
2023-05-05T05:58:09.991Z,97736.81
2023-05-05T06:00:38.306Z,97737.16
2023-05-05T06:03:10.152Z,97730.59
2023-05-05T06:05:41.776Z,97728.16
2023-05-05T06:08:10.579Z,97743.25
2023-05-05T06:10:43.939Z,97741.22
2023-05-05T06:13:17.193Z,97747.56
2023-05-05T06:15:48.946Z,97741.13
2023-05-05T06:18:18.160Z,97736.34
2023-05-05T06:20:50.578Z,97734.50
2023-05-05T06:23:19.888Z,97737.34
2023-05-05T06:25:54.950Z,97733.81
2023-05-05T06:28:23.300Z,97734.13
2023-05-05T06:30:51.867Z,97729.91
2023-05-05T06:33:20.248Z,97727.22
2023-05-05T06:35:50.092Z,97727.03
2023-05-05T06:38:18.529Z,97720.41
2023-05-05T06:40:49.812Z,97719.41
2023-05-05T06:43:19.506Z,97722.81
2023-05-05T06:45:55.713Z,97712.53
2023-05-05T06:48:24.128Z,97725.78
2023-05-05T06:50:54.195Z,97720.00
2023-05-05T06:53:22.466Z,97714.00
2023-05-05T06:55:50.891Z,97713.84
2023-05-05T06:58:19.193Z,97707.78
2023-05-05T07:00:47.532Z,97708.00
2023-05-05T07:03:15.775Z,97712.44
2023-05-05T07:05:44.017Z,97716.91
2023-05-05T07:08:14.366Z,97708.16
2023-05-05T07:10:42.943Z,97706.00
2023-05-05T07:13:12.823Z,97714.66
2023-05-05T07:15:46.325Z,97717.91
2023-05-05T07:18:16.080Z,97709.03
2023-05-05T07:20:44.884Z,97714.88
2023-05-05T07:23:15.099Z,97708.22
2023-05-05T07:25:44.613Z,97704.34
2023-05-05T07:28:13.096Z,97703.34
2023-05-05T07:30:41.574Z,97707.84
2023-05-05T07:33:11.307Z,97698.78
2023-05-05T07:35:39.605Z,97695.09
2023-05-05T07:38:08.710Z,97692.16
2023-05-05T07:40:39.831Z,97690.78
2023-05-05T07:43:08.098Z,97696.06
2023-05-05T07:45:36.390Z,97681.22
2023-05-05T07:48:04.890Z,97688.84
2023-05-05T07:50:33.123Z,97688.88
2023-05-05T07:53:10.826Z,97684.69
2023-05-05T07:55:43.777Z,97683.44
2023-05-05T07:58:12.131Z,97680.78
2023-05-05T08:00:41.062Z,97686.34
2023-05-05T08:03:11.580Z,97683.56
2023-05-05T08:05:40.957Z,97692.88
2023-05-05T08:08:09.210Z,97685.09
2023-05-05T08:10:37.447Z,97686.16
2023-05-05T08:13:07.053Z,97686.97
2023-05-05T08:15:35.362Z,97681.22
2023-05-05T08:18:03.597Z,97675.22
2023-05-05T08:20:32.697Z,97680.03
2023-05-05T08:23:01.071Z,97686.19
2023-05-05T08:25:29.401Z,97678.09
2023-05-05T08:27:57.682Z,97677.41
2023-05-05T08:30:31.685Z,97676.19
2023-05-05T08:33:00.731Z,97672.84
2023-05-05T08:35:30.119Z,97676.75
2023-05-05T08:37:59.211Z,97674.94
2023-05-05T08:40:34.851Z,97669.41
2023-05-05T08:43:03.142Z,97671.78
2023-05-05T08:45:34.064Z,97670.25
2023-05-05T08:48:03.698Z,97675.81
2023-05-05T08:50:33.034Z,97667.19
2023-05-05T08:53:11.551Z,97677.59
2023-05-05T08:55:47.630Z,97674.03
2023-05-05T08:58:16.935Z,97666.69
2023-05-05T09:00:47.714Z,97669.84
2023-05-05T09:03:17.449Z,97671.50
2023-05-05T09:05:46.131Z,97670.56
2023-05-05T09:08:14.550Z,97661.44
2023-05-05T09:10:43.573Z,97659.50
2023-05-05T09:13:11.936Z,97665.44
2023-05-05T09:15:41.468Z,97661.16
2023-05-05T09:18:12.239Z,97652.34
2023-05-05T09:20:41.088Z,97654.09
2023-05-05T09:23:10.666Z,97652.31
2023-05-05T09:25:39.512Z,97644.41
2023-05-05T09:28:12.349Z,97638.88
2023-05-05T09:30:41.781Z,97634.22
2023-05-05T09:33:12.307Z,97640.88
2023-05-05T09:35:51.520Z,97635.84
2023-05-05T09:38:19.992Z,97640.03
2023-05-05T09:40:49.756Z,97638.09
2023-05-05T09:43:19.156Z,97631.84
2023-05-05T09:45:48.874Z,97633.19
2023-05-05T09:48:29.262Z,97639.41
2023-05-05T09:50:58.394Z,97632.47
2023-05-05T09:53:27.598Z,97626.38
2023-05-05T09:55:56.820Z,97637.28
2023-05-05T09:58:25.954Z,97630.31
2023-05-05T10:00:56.209Z,97634.22
2023-05-05T10:03:24.793Z,97626.16
2023-05-05T10:05:55.853Z,97620.56
2023-05-05T10:08:25.201Z,97622.47
2023-05-05T10:10:55.207Z,97617.63
2023-05-05T10:13:25.124Z,97622.38
2023-05-05T10:15:54.719Z,97616.03
2023-05-05T10:18:25.035Z,97615.38
2023-05-05T10:20:58.383Z,97616.59
2023-05-05T10:23:30.839Z,97601.69
2023-05-05T10:26:02.717Z,97609.91
2023-05-05T10:28:34.342Z,97611.66
2023-05-05T10:31:09.994Z,97609.13
2023-05-05T10:33:50.836Z,97600.44
2023-05-05T10:36:23.403Z,97597.53
2023-05-05T10:38:51.618Z,97592.56
2023-05-05T10:41:19.988Z,97592.47
2023-05-05T10:43:49.126Z,97585.25
2023-05-05T10:46:17.487Z,97582.16
2023-05-05T10:48:56.189Z,97585.38
2023-05-05T10:51:40.065Z,97571.13
2023-05-05T10:54:13.901Z,97567.28
2023-05-05T10:56:43.149Z,97562.53
2023-05-05T10:59:42.881Z,97560.53
2023-05-05T11:02:24.227Z,97552.88
2023-05-05T11:05:15.282Z,97553.34
2023-05-05T11:07:51.283Z,97559.44
2023-05-05T11:10:21.185Z,97547.94
2023-05-05T11:13:23.679Z,97551.94
2023-05-05T11:15:54.273Z,97542.16
2023-05-05T11:18:39.528Z,97546.19
2023-05-05T11:21:16.650Z,97535.50
2023-05-05T11:23:55.662Z,97541.88
2023-05-05T11:26:52.478Z,97542.72
2023-05-05T11:29:20.664Z,97535.19
2023-05-05T11:32:12.716Z,97536.91
2023-05-05T11:34:49.889Z,97538.94
2023-05-05T11:37:18.131Z,97539.59
2023-05-05T11:39:55.683Z,97529.78
2023-05-05T11:42:28.147Z,97538.44
2023-05-05T11:44:57.983Z,97528.53
2023-05-05T11:47:31.346Z,97518.66
2023-05-05T11:50:00.199Z,97515.06
2023-05-05T11:52:28.853Z,97512.53
2023-05-05T11:55:03.830Z,97505.72
2023-05-05T11:57:32.436Z,97510.47
2023-05-05T12:00:02.120Z,97517.66
2023-05-05T12:02:35.267Z,97509.75
2023-05-05T12:05:03.820Z,97508.69
2023-05-05T12:07:33.306Z,97508.25
2023-05-05T12:10:02.967Z,97506.34
2023-05-05T12:12:39.418Z,97509.09
2023-05-05T12:15:09.269Z,97509.25
2023-05-05T12:17:40.832Z,97504.25
2023-05-05T12:20:10.447Z,97505.88
2023-05-05T12:22:39.405Z,97510.03
2023-05-05T12:25:10.404Z,97504.31
2023-05-05T12:27:41.610Z,97495.28
2023-05-05T12:30:15.728Z,97501.78
2023-05-05T12:32:44.899Z,97501.59
2023-05-05T12:35:13.655Z,97489.28
2023-05-05T12:37:42.185Z,97495.28
2023-05-05T12:40:46.402Z,97491.53
2023-05-05T12:43:31.469Z,97501.41
2023-05-05T12:46:05.099Z,97486.84
2023-05-05T12:48:34.227Z,97481.00
2023-05-05T12:51:13.149Z,97476.66
2023-05-05T12:53:41.834Z,97465.75
2023-05-05T12:56:33.109Z,97472.84
2023-05-05T12:59:01.507Z,97475.72
2023-05-05T13:01:29.925Z,97466.75
2023-05-05T13:04:08.545Z,97464.22
2023-05-05T13:06:37.786Z,97457.72
2023-05-05T13:09:06.350Z,97461.41
2023-05-05T13:11:39.988Z,97443.41
2023-05-05T13:14:09.666Z,97450.97
2023-05-05T13:16:37.883Z,97435.16
2023-05-05T13:19:06.034Z,97442.75
2023-05-05T13:21:34.521Z,97444.44
2023-05-05T13:24:20.784Z,97441.78
2023-05-05T13:26:52.879Z,97438.25
2023-05-05T13:29:21.104Z,97437.41
2023-05-05T13:31:50.011Z,97437.59
2023-05-05T13:34:18.224Z,97429.91
2023-05-05T13:36:46.529Z,97423.03
2023-05-05T13:39:14.777Z,97419.50
2023-05-05T13:41:44.799Z,97424.34
2023-05-05T13:44:15.488Z,97418.50
2023-05-05T13:46:43.827Z,97412.59
2023-05-05T13:49:12.143Z,97416.63
2023-05-05T13:51:40.562Z,97420.25
2023-05-05T13:54:08.743Z,97410.72
2023-05-05T13:56:37.584Z,97406.50
2023-05-05T13:59:06.014Z,97399.31
2023-05-05T14:01:36.002Z,97399.72
2023-05-05T14:04:06.233Z,97396.19
2023-05-05T14:06:35.799Z,97393.88
2023-05-05T14:09:06.249Z,97392.19
2023-05-05T14:11:34.830Z,97394.47
2023-05-05T14:14:04.067Z,97389.09
2023-05-05T14:16:32.383Z,97397.09
2023-05-05T14:19:08.150Z,97395.66
2023-05-05T14:21:45.247Z,97388.94
2023-05-05T14:24:13.514Z,97387.47
2023-05-05T14:26:43.699Z,97390.97
2023-05-05T14:29:15.749Z,97383.88
2023-05-05T14:31:45.945Z,97386.97
2023-05-05T14:34:17.076Z,97387.81
2023-05-05T14:36:48.209Z,97385.97
2023-05-05T14:39:17.064Z,97388.59
2023-05-05T14:41:46.609Z,97379.94
2023-05-05T14:44:18.720Z,97382.81
2023-05-05T14:46:51.056Z,97378.50
2023-05-05T14:49:24.126Z,97375.53
2023-05-05T14:51:56.693Z,97378.47
2023-05-05T14:54:31.620Z,97376.50
2023-05-05T14:57:00.907Z,97374.75
2023-05-05T14:59:30.649Z,97373.13
2023-05-05T15:02:01.764Z,97381.53
2023-05-05T15:04:38.135Z,97375.81
2023-05-05T15:07:09.769Z,97380.34
2023-05-05T15:09:38.486Z,97373.47
2023-05-05T15:12:09.255Z,97379.41
2023-05-05T15:14:40.424Z,97381.41
2023-05-05T15:17:09.173Z,97370.94
2023-05-05T15:19:43.370Z,97382.03
2023-05-05T15:22:13.953Z,97379.09
2023-05-05T15:24:42.537Z,97379.84
2023-05-05T15:27:11.071Z,97379.97
2023-05-05T15:29:42.129Z,97374.88
2023-05-05T15:32:10.344Z,97377.00
2023-05-05T15:34:39.854Z,97375.63
2023-05-05T15:37:08.300Z,97377.41
2023-05-05T15:39:36.631Z,97368.13
2023-05-05T15:42:08.074Z,97376.41
2023-05-05T15:44:36.266Z,97373.06
2023-05-05T15:47:06.654Z,97370.28
2023-05-05T15:49:35.340Z,97368.00
2023-05-05T15:52:06.489Z,97366.88
2023-05-05T15:54:34.733Z,97368.84
2023-05-05T15:57:08.193Z,97375.81
2023-05-05T15:59:37.396Z,97374.84
2023-05-05T16:02:06.209Z,97364.28
2023-05-05T16:04:34.792Z,97376.44
2023-05-05T16:07:03.854Z,97368.88
2023-05-05T16:09:33.701Z,97367.22
2023-05-05T16:12:02.754Z,97360.78
2023-05-05T16:14:32.154Z,97360.94
2023-05-05T16:17:03.060Z,97360.97
2023-05-05T16:19:31.377Z,97356.69
2023-05-05T16:21:59.934Z,97355.00
2023-05-05T16:24:29.091Z,97358.69
2023-05-05T16:26:59.394Z,97351.22
2023-05-05T16:29:27.642Z,97355.31
2023-05-05T16:31:55.822Z,97355.31
2023-05-05T16:34:24.163Z,97359.50
2023-05-05T16:36:53.420Z,97355.47
2023-05-05T16:39:22.110Z,97361.97
2023-05-05T16:41:50.466Z,97352.00
2023-05-05T16:44:20.386Z,97356.00
2023-05-05T16:46:48.673Z,97359.13
2023-05-05T16:49:17.215Z,97360.81
2023-05-05T16:51:45.465Z,97360.31
2023-05-05T16:54:13.565Z,97356.16
2023-05-05T16:56:42.155Z,97359.09
2023-05-05T16:59:10.355Z,97359.94
2023-05-05T17:01:43.445Z,97366.38
2023-05-05T17:04:12.980Z,97363.50
2023-05-05T17:06:42.498Z,97361.09
2023-05-05T17:09:12.532Z,97364.69
2023-05-05T17:11:40.720Z,97372.84
2023-05-05T17:14:08.946Z,97372.59
2023-05-05T17:16:38.149Z,97376.69
2023-05-05T17:19:07.785Z,97387.88
2023-05-05T17:21:36.381Z,97381.81
2023-05-05T17:24:04.802Z,97389.47
2023-05-05T17:26:33.006Z,97393.06
2023-05-05T17:29:01.964Z,97389.16
2023-05-05T17:31:30.190Z,97388.44
2023-05-05T17:33:58.399Z,97390.91
2023-05-05T17:36:27.962Z,97392.19
2023-05-05T17:38:56.161Z,97387.38
2023-05-05T17:41:26.007Z,97389.44
2023-05-05T17:43:54.212Z,97395.81
2023-05-05T17:46:27.458Z,97393.56
2023-05-05T17:48:55.886Z,97403.03
2023-05-05T17:51:25.241Z,97407.78
2023-05-05T17:53:55.872Z,97401.78
2023-05-05T17:56:24.149Z,97409.22
2023-05-05T17:58:52.593Z,97407.34
2023-05-05T18:01:24.688Z,97403.25
2023-05-05T18:03:53.482Z,97413.69
2023-05-05T18:06:21.810Z,97416.94
2023-05-05T18:08:50.253Z,97415.78
2023-05-05T18:11:28.150Z,97424.09
2023-05-05T18:13:59.376Z,97411.72
2023-05-05T18:16:28.225Z,97417.16
2023-05-05T18:18:58.581Z,97419.75
2023-05-05T18:21:27.406Z,97416.19
2023-05-05T18:24:04.601Z,97424.63
2023-05-05T18:26:57.285Z,97422.50
2023-05-05T18:29:28.668Z,97423.28
2023-05-05T18:31:57.813Z,97432.53
2023-05-05T18:34:26.896Z,97429.00
2023-05-05T18:36:55.960Z,97443.13
2023-05-05T18:39:25.378Z,97448.75
2023-05-05T18:41:56.367Z,97447.47
2023-05-05T18:44:27.040Z,97448.59
2023-05-05T18:46:56.300Z,97454.06
2023-05-05T18:49:25.808Z,97458.38
2023-05-05T18:51:57.102Z,97457.44
2023-05-05T18:54:28.542Z,97457.03
2023-05-05T18:57:00.336Z,97458.88
2023-05-05T18:59:32.210Z,97462.94
2023-05-05T19:02:01.685Z,97464.44
2023-05-05T19:04:37.085Z,97466.53
2023-05-05T19:07:06.845Z,97466.19
2023-05-05T19:09:36.815Z,97470.06
2023-05-05T19:12:08.206Z,97467.34
2023-05-05T19:14:37.852Z,97479.63
2023-05-05T19:17:08.816Z,97476.53
2023-05-05T19:19:39.729Z,97477.53
2023-05-05T19:22:10.252Z,97477.94
2023-05-05T19:24:39.594Z,97484.66
2023-05-05T19:27:16.378Z,97492.59
2023-05-05T19:29:46.335Z,97480.81
2023-05-05T19:32:16.101Z,97480.81
2023-05-05T19:34:46.555Z,97489.31
2023-05-05T19:37:16.053Z,97488.47
2023-05-05T19:39:46.277Z,97492.94
2023-05-05T19:42:17.648Z,97491.94
2023-05-05T19:44:46.997Z,97481.75
2023-05-05T19:47:16.209Z,97482.66
2023-05-05T19:49:45.814Z,97494.72
2023-05-05T19:52:14.966Z,97493.59
2023-05-05T19:54:44.529Z,97489.03
2023-05-05T19:57:13.888Z,97489.97
2023-05-05T19:59:49.584Z,97476.38
2023-05-05T20:02:19.003Z,97479.31
2023-05-05T20:04:49.111Z,97480.66
2023-05-05T20:07:18.553Z,97477.94
2023-05-05T20:09:48.523Z,97478.47
2023-05-05T20:12:20.099Z,97480.75
2023-05-05T20:14:51.028Z,97483.66
2023-05-05T20:17:20.802Z,97480.03
2023-05-05T20:19:53.868Z,97480.19
2023-05-05T20:22:27.645Z,97475.91
2023-05-05T20:24:56.778Z,97471.50
2023-05-05T20:27:26.731Z,97474.56
2023-05-05T20:29:59.235Z,97481.25
2023-05-05T20:32:29.279Z,97478.94
2023-05-05T20:34:58.393Z,97473.16
2023-05-05T20:37:27.662Z,97479.72
2023-05-05T20:39:56.930Z,97480.72
2023-05-05T20:42:27.867Z,97483.94
2023-05-05T20:44:56.782Z,97486.44
2023-05-05T20:47:27.162Z,97482.91
2023-05-05T20:49:55.782Z,97492.41
2023-05-05T20:52:25.658Z,97488.16
2023-05-05T20:54:54.145Z,97488.06
2023-05-05T20:57:22.531Z,97486.78
2023-05-05T20:59:51.040Z,97497.34
2023-05-05T21:02:20.086Z,97503.34
2023-05-05T21:04:49.763Z,97501.53
2023-05-05T21:07:20.838Z,97498.38
2023-05-05T21:09:49.279Z,97506.06
2023-05-05T21:12:17.694Z,97503.13
2023-05-05T21:14:45.964Z,97495.69
2023-05-05T21:17:14.085Z,97499.84
2023-05-05T21:19:42.337Z,97491.34
2023-05-05T21:22:11.848Z,97502.25
2023-05-05T21:24:40.786Z,97500.50
2023-05-05T21:27:08.980Z,97492.41
2023-05-05T21:29:38.562Z,97491.03
2023-05-05T21:32:08.570Z,97484.94
2023-05-05T21:34:37.327Z,97477.66
2023-05-05T21:37:06.162Z,97483.59
2023-05-05T21:39:37.852Z,97482.31
2023-05-05T21:42:06.159Z,97480.84
2023-05-05T21:44:34.467Z,97477.75
2023-05-05T21:47:02.774Z,97487.28
2023-05-05T21:49:31.098Z,97483.22
2023-05-05T21:51:59.471Z,97488.41
2023-05-05T21:54:27.753Z,97489.59
2023-05-05T21:56:57.299Z,97487.84
2023-05-05T21:59:25.469Z,97485.41
2023-05-05T22:01:53.751Z,97485.00
2023-05-05T22:04:22.296Z,97483.22
2023-05-05T22:06:50.413Z,97489.19
2023-05-05T22:09:19.572Z,97486.75
2023-05-05T22:11:47.820Z,97482.94
2023-05-05T22:14:21.450Z,97472.91
2023-05-05T22:16:49.651Z,97470.97
2023-05-05T22:19:18.117Z,97476.41
2023-05-05T22:21:46.259Z,97473.25
2023-05-05T22:24:14.492Z,97474.25
2023-05-05T22:26:43.522Z,97466.78
2023-05-05T22:29:12.062Z,97465.91
2023-05-05T22:31:42.143Z,97461.41
2023-05-05T22:34:14.658Z,97457.47
2023-05-05T22:36:43.119Z,97454.09
2023-05-05T22:39:11.850Z,97453.06
2023-05-05T22:41:39.992Z,97449.44
2023-05-05T22:44:08.846Z,97444.00
2023-05-05T22:46:37.411Z,97441.28
2023-05-05T22:49:07.007Z,97439.53
2023-05-05T22:51:35.374Z,97443.50
2023-05-05T22:54:03.559Z,97438.94
2023-05-05T22:56:31.740Z,97435.03
2023-05-05T22:58:59.970Z,97443.72
2023-05-05T23:01:28.184Z,97445.41
2023-05-05T23:03:56.609Z,97448.75
2023-05-05T23:06:26.180Z,97446.72
2023-05-05T23:08:54.439Z,97450.25
2023-05-05T23:11:22.685Z,97439.25
2023-05-05T23:13:50.976Z,97442.00
2023-05-05T23:16:19.148Z,97432.44
2023-05-05T23:18:47.417Z,97436.63
2023-05-05T23:21:15.703Z,97433.19
2023-05-05T23:23:45.365Z,97431.81
2023-05-05T23:26:14.348Z,97428.91
2023-05-05T23:28:42.475Z,97432.44
2023-05-05T23:31:10.706Z,97423.81
2023-05-05T23:33:38.817Z,97419.34
2023-05-05T23:36:07.298Z,97413.31
2023-05-05T23:38:35.554Z,97411.91
2023-05-05T23:41:05.603Z,97406.66
2023-05-05T23:43:33.902Z,97402.88
2023-05-05T23:46:02.188Z,97403.31
2023-05-05T23:48:30.616Z,97401.63
2023-05-05T23:50:58.735Z,97408.66
2023-05-05T23:53:28.286Z,97408.91
2023-05-05T23:55:56.723Z,97406.88
2023-05-05T23:58:26.603Z,97395.63
